createdAt,value
2019-03-05T00:00:38.682Z,97924.08
2019-03-05T00:03:11.990Z,97923.72
2019-03-05T00:05:44.270Z,97927.87
2019-03-05T00:08:17.629Z,97932.11
2019-03-05T00:10:49.953Z,97932.00
2019-03-05T00:13:21.270Z,97936.69
2019-03-05T00:15:54.271Z,97931.92
2019-03-05T00:18:26.819Z,97940.23
2019-03-05T00:20:59.841Z,97937.73
2019-03-05T00:23:58.398Z,97947.59
2019-03-05T00:26:33.552Z,97951.90
2019-03-05T00:29:56.409Z,97958.80
2019-03-05T00:32:28.767Z,97965.50
2019-03-05T00:35:37.443Z,97975.63
2019-03-05T00:38:17.789Z,97995.27
2019-03-05T00:41:30.100Z,97996.34
2019-03-05T00:44:25.369Z,98007.31
2019-03-05T00:47:20.429Z,98017.95
2019-03-05T00:50:54.071Z,98020.48
2019-03-05T00:53:44.169Z,98012.36
2019-03-05T00:56:31.498Z,98003.28
2019-03-05T00:59:19.530Z,98009.83
2019-03-05T01:02:15.158Z,98012.73
2019-03-05T01:05:22.038Z,98026.17
2019-03-05T01:07:54.631Z,98035.72
2019-03-05T01:10:27.021Z,98042.16
2019-03-05T01:12:59.540Z,98044.60
2019-03-05T01:15:32.103Z,98052.48
2019-03-05T01:18:04.419Z,98064.78
2019-03-05T01:20:35.797Z,98075.08
2019-03-05T01:23:07.869Z,98087.11
2019-03-05T01:25:39.177Z,98087.73
2019-03-05T01:28:11.419Z,98094.08
2019-03-05T01:31:11.829Z,98104.14
2019-03-05T01:34:02.851Z,98120.75
2019-03-05T01:36:38.041Z,98123.09
2019-03-05T01:39:28.099Z,98128.41
2019-03-05T01:42:00.989Z,98140.05
2019-03-05T01:44:33.319Z,98133.98
2019-03-05T01:47:04.728Z,98141.90
2019-03-05T01:49:36.809Z,98146.84
2019-03-05T01:52:08.117Z,98144.23
2019-03-05T01:54:40.078Z,98142.66
2019-03-05T01:57:12.560Z,98151.97
2019-03-05T01:59:44.929Z,98147.88
2019-03-05T02:02:17.589Z,98154.53
2019-03-05T02:04:49.809Z,98155.92
2019-03-05T02:07:21.109Z,98156.91
2019-03-05T02:09:53.208Z,98157.08
2019-03-05T02:12:24.387Z,98151.89
2019-03-05T02:14:56.499Z,98162.44
2019-03-05T02:17:29.060Z,98166.34
2019-03-05T02:20:01.431Z,98169.12
2019-03-05T02:22:47.219Z,98165.97
2019-03-05T02:25:39.999Z,98175.55
2019-03-05T02:28:26.759Z,98179.00
2019-03-05T02:31:27.850Z,98186.25
2019-03-05T02:34:43.761Z,98181.59
2019-03-05T02:38:05.656Z,98182.64
2019-03-05T02:40:44.529Z,98183.28
2019-03-05T02:43:44.996Z,98191.46
2019-03-05T02:46:39.770Z,98198.74
2019-03-05T02:49:43.822Z,98204.59
2019-03-05T02:53:02.302Z,98203.47
2019-03-05T02:56:10.864Z,98206.17
2019-03-05T02:58:40.909Z,98214.00
2019-03-05T03:01:27.149Z,98223.13
2019-03-05T03:04:03.372Z,98216.97
2019-03-05T03:06:36.369Z,98220.70
2019-03-05T03:09:42.099Z,98230.65
2019-03-05T03:12:14.381Z,98223.95
2019-03-05T03:14:45.667Z,98236.71
2019-03-05T03:17:17.791Z,98237.28
2019-03-05T03:19:50.093Z,98241.20
2019-03-05T03:22:21.429Z,98237.65
2019-03-05T03:24:53.914Z,98243.68
2019-03-05T03:27:26.290Z,98246.88
2019-03-05T03:29:58.633Z,98252.55
2019-03-05T03:32:31.097Z,98254.22
2019-03-05T03:35:03.406Z,98256.82
2019-03-05T03:37:35.721Z,98264.11
2019-03-05T03:40:12.001Z,98259.25
2019-03-05T03:42:45.440Z,98264.19
2019-03-05T03:45:20.781Z,98264.11
2019-03-05T03:47:53.161Z,98259.34
2019-03-05T03:50:25.817Z,98260.28
2019-03-05T03:52:58.204Z,98265.13
2019-03-05T03:55:30.693Z,98271.25
2019-03-05T03:58:03.002Z,98273.41
2019-03-05T04:00:34.238Z,98276.01
2019-03-05T04:03:06.399Z,98280.28
2019-03-05T04:05:39.582Z,98288.48
2019-03-05T04:08:11.488Z,98290.17
2019-03-05T04:10:43.600Z,98288.88
2019-03-05T04:13:14.888Z,98284.97
2019-03-05T04:15:47.024Z,98284.20
2019-03-05T04:18:19.426Z,98290.80
2019-03-05T04:20:53.590Z,98292.88
2019-03-05T04:23:26.071Z,98299.84
2019-03-05T04:25:58.340Z,98306.73
2019-03-05T04:28:29.607Z,98309.54
2019-03-05T04:31:01.629Z,98310.84
2019-03-05T04:33:32.898Z,98313.45
2019-03-05T04:36:04.929Z,98317.73
2019-03-05T04:38:36.237Z,98318.66
2019-03-05T04:41:08.389Z,98326.94
2019-03-05T04:43:39.517Z,98321.27
2019-03-05T04:46:28.915Z,98326.48
2019-03-05T04:49:22.859Z,98328.24
2019-03-05T04:51:58.749Z,98336.55
2019-03-05T04:54:31.059Z,98338.22
2019-03-05T04:57:02.238Z,98337.85
2019-03-05T04:59:34.449Z,98349.95
2019-03-05T05:02:07.859Z,98346.05
2019-03-05T05:04:40.579Z,98344.25
2019-03-05T05:07:13.080Z,98360.83
2019-03-05T05:09:45.329Z,98356.27
2019-03-05T05:12:16.499Z,98364.09
2019-03-05T05:14:48.599Z,98373.22
2019-03-05T05:17:20.979Z,98365.77
2019-03-05T05:19:53.289Z,98377.95
2019-03-05T05:22:26.169Z,98378.44
2019-03-05T05:24:58.622Z,98389.80
2019-03-05T05:27:30.981Z,98387.27
2019-03-05T05:30:03.307Z,98399.66
2019-03-05T05:32:36.399Z,98409.31
2019-03-05T05:35:08.829Z,98406.34
2019-03-05T05:37:41.089Z,98400.84
2019-03-05T05:40:23.668Z,98414.52
2019-03-05T05:42:55.812Z,98420.35
2019-03-05T05:45:30.919Z,98410.13
2019-03-05T05:48:03.256Z,98418.95
2019-03-05T05:50:35.694Z,98415.45
2019-03-05T05:53:08.195Z,98416.37
2019-03-05T05:55:40.742Z,98422.92
2019-03-05T05:58:13.232Z,98425.42
2019-03-05T06:00:53.629Z,98424.92
2019-03-05T06:03:25.999Z,98436.80
2019-03-05T06:05:58.509Z,98429.33
2019-03-05T06:08:30.739Z,98428.48
2019-03-05T06:11:01.936Z,98432.25
2019-03-05T06:13:34.014Z,98429.35
2019-03-05T06:16:05.297Z,98438.95
2019-03-05T06:18:37.473Z,98438.95
2019-03-05T06:21:09.979Z,98440.99
2019-03-05T06:23:42.649Z,98438.23
2019-03-05T06:26:20.728Z,98440.57
2019-03-05T06:28:54.530Z,98441.85
2019-03-05T06:31:25.827Z,98440.77
2019-03-05T06:33:58.200Z,98436.74
2019-03-05T06:36:52.352Z,98445.33
2019-03-05T06:39:24.734Z,98444.03
2019-03-05T06:41:57.158Z,98448.59
2019-03-05T06:44:29.570Z,98442.25
2019-03-05T06:47:01.986Z,98445.78
2019-03-05T06:49:34.370Z,98445.41
2019-03-05T06:52:06.849Z,98440.77
2019-03-05T06:54:39.240Z,98437.23
2019-03-05T06:57:12.674Z,98444.45
2019-03-05T06:59:45.079Z,98442.51
2019-03-05T07:02:18.079Z,98445.77
2019-03-05T07:04:59.460Z,98441.05
2019-03-05T07:07:32.989Z,98442.00
2019-03-05T07:10:57.010Z,98439.80
2019-03-05T07:13:38.208Z,98443.52
2019-03-05T07:17:18.359Z,98446.87
2019-03-05T07:20:12.749Z,98438.64
2019-03-05T07:23:28.660Z,98426.17
2019-03-05T07:26:01.075Z,98437.00
2019-03-05T07:28:33.399Z,98438.14
2019-03-05T07:31:05.806Z,98442.66
2019-03-05T07:33:38.419Z,98436.66
2019-03-05T07:36:10.769Z,98450.66
2019-03-05T07:38:43.089Z,98443.50
2019-03-05T07:41:14.307Z,98451.98
2019-03-05T07:43:46.892Z,98457.61
2019-03-05T07:46:19.309Z,98450.89
2019-03-05T07:48:51.674Z,98461.34
2019-03-05T07:51:24.140Z,98469.63
2019-03-05T07:53:56.399Z,98461.66
2019-03-05T07:56:28.347Z,98468.73
2019-03-05T07:59:00.459Z,98469.37
2019-03-05T08:01:32.849Z,98465.69
2019-03-05T08:04:05.212Z,98471.87
2019-03-05T08:06:37.637Z,98465.66
2019-03-05T08:09:34.287Z,98481.75
2019-03-05T08:12:26.129Z,98479.66
2019-03-05T08:15:14.408Z,98474.35
2019-03-05T08:17:47.196Z,98478.58
2019-03-05T08:20:20.019Z,98484.06
2019-03-05T08:22:52.540Z,98487.02
2019-03-05T08:25:24.769Z,98492.48
2019-03-05T08:27:56.120Z,98492.12
2019-03-05T08:30:28.259Z,98492.64
2019-03-05T08:33:00.629Z,98490.98
2019-03-05T08:35:33.022Z,98488.45
2019-03-05T08:38:05.389Z,98493.81
2019-03-05T08:40:37.779Z,98500.81
2019-03-05T08:43:10.180Z,98502.23
2019-03-05T08:45:42.541Z,98508.63
2019-03-05T08:48:15.123Z,98507.90
2019-03-05T08:50:47.999Z,98503.77
2019-03-05T08:53:20.410Z,98510.45
2019-03-05T08:55:52.773Z,98512.07
2019-03-05T08:58:25.181Z,98497.84
2019-03-05T09:00:57.478Z,98499.45
2019-03-05T09:03:28.836Z,98500.07
2019-03-05T09:06:00.990Z,98501.72
2019-03-05T09:08:33.660Z,98498.73
2019-03-05T09:11:06.118Z,98503.12
2019-03-05T09:13:38.758Z,98524.44
2019-03-05T09:16:11.228Z,98506.55
2019-03-05T09:18:43.681Z,98488.79
2019-03-05T09:21:16.148Z,98501.34
2019-03-05T09:23:48.528Z,98500.21
2019-03-05T09:26:21.068Z,98507.61
2019-03-05T09:28:53.458Z,98506.41
2019-03-05T09:31:26.097Z,98515.96
2019-03-05T09:33:58.839Z,98527.37
2019-03-05T09:36:31.985Z,98507.73
2019-03-05T09:39:05.857Z,98529.87
2019-03-05T09:41:39.708Z,98523.25
2019-03-05T09:44:10.947Z,98525.33
2019-03-05T09:46:43.063Z,98521.67
2019-03-05T09:49:14.357Z,98526.18
2019-03-05T09:51:47.548Z,98531.50
2019-03-05T09:54:20.007Z,98529.19
2019-03-05T09:56:52.477Z,98531.80
2019-03-05T09:59:25.411Z,98539.56
2019-03-05T10:01:57.738Z,98532.56
2019-03-05T10:04:30.068Z,98536.00
2019-03-05T10:07:01.099Z,98539.10
2019-03-05T10:09:34.869Z,98536.78
2019-03-05T10:12:07.468Z,98540.23
2019-03-05T10:14:40.037Z,98541.73
2019-03-05T10:17:12.387Z,98544.72
2019-03-05T10:19:44.983Z,98555.63
2019-03-05T10:22:17.678Z,98553.91
2019-03-05T10:24:50.303Z,98555.95
2019-03-05T10:27:23.018Z,98553.30
2019-03-05T10:29:55.428Z,98542.10
2019-03-05T10:32:27.823Z,98538.53
2019-03-05T10:35:00.095Z,98545.89
2019-03-05T10:37:33.008Z,98542.78
2019-03-05T10:40:06.019Z,98544.34
2019-03-05T10:42:41.123Z,98541.42
2019-03-05T10:45:16.897Z,98539.89
2019-03-05T10:47:49.728Z,98535.34
2019-03-05T10:50:24.876Z,98537.44
2019-03-05T10:52:58.008Z,98539.44
2019-03-05T10:55:29.396Z,98537.69
2019-03-05T10:58:01.809Z,98538.36
2019-03-05T11:00:36.568Z,98543.55
2019-03-05T11:03:09.378Z,98540.84
2019-03-05T11:05:42.068Z,98536.78
2019-03-05T11:08:21.728Z,98541.50
2019-03-05T11:10:55.002Z,98547.70
2019-03-05T11:13:27.838Z,98551.31
2019-03-05T11:16:00.208Z,98551.99
2019-03-05T11:18:32.791Z,98558.43
2019-03-05T11:21:05.720Z,98572.73
2019-03-05T11:23:38.331Z,98575.17
2019-03-05T11:26:10.800Z,98582.98
2019-03-05T11:28:43.168Z,98573.48
2019-03-05T11:31:16.738Z,98569.02
2019-03-05T11:33:49.145Z,98603.98
2019-03-05T11:36:21.858Z,98592.03
2019-03-05T11:38:54.434Z,98579.08
2019-03-05T11:41:27.869Z,98574.98
2019-03-05T11:44:01.153Z,98581.01
2019-03-05T11:46:33.989Z,98594.09
2019-03-05T11:49:07.027Z,98585.23
2019-03-05T11:51:39.708Z,98587.76
2019-03-05T11:54:12.561Z,98604.91
2019-03-05T11:56:45.577Z,98592.86
2019-03-05T11:59:18.509Z,98598.75
2019-03-05T12:01:52.543Z,98621.90
2019-03-05T12:04:24.961Z,98602.70
2019-03-05T12:06:56.676Z,98613.79
2019-03-05T12:09:28.859Z,98605.66
2019-03-05T12:12:01.188Z,98609.68
2019-03-05T12:14:33.552Z,98611.27
2019-03-05T12:17:04.816Z,98620.66
2019-03-05T12:19:37.008Z,98628.95
2019-03-05T12:22:09.408Z,98643.27
2019-03-05T12:24:41.808Z,98646.63
2019-03-05T12:27:14.208Z,98647.89
2019-03-05T12:29:46.618Z,98646.00
2019-03-05T12:32:18.828Z,98661.74
2019-03-05T12:34:50.382Z,98670.50
2019-03-05T12:37:22.668Z,98684.20
2019-03-05T12:39:54.929Z,98697.80
2019-03-05T12:42:28.289Z,98712.98
2019-03-05T12:45:00.809Z,98699.34
2019-03-05T12:47:34.228Z,98710.44
2019-03-05T12:50:06.257Z,98700.95
2019-03-05T12:52:39.258Z,98719.24
2019-03-05T12:55:11.769Z,98725.95
2019-03-05T12:57:44.128Z,98704.52
2019-03-05T13:00:19.342Z,98713.38
2019-03-05T13:02:52.278Z,98711.03
2019-03-05T13:05:24.668Z,98700.95
2019-03-05T13:07:58.049Z,98694.73
2019-03-05T13:10:34.827Z,98695.06
2019-03-05T13:13:04.667Z,98694.80
2019-03-05T13:15:37.539Z,98687.60
2019-03-05T13:18:10.128Z,98693.16
2019-03-05T13:20:42.550Z,98696.22
2019-03-05T13:23:14.859Z,98685.95
2019-03-05T13:25:46.470Z,98682.78
2019-03-05T13:28:18.610Z,98687.92
2019-03-05T13:30:51.152Z,98707.84
2019-03-05T13:33:24.576Z,98724.89
2019-03-05T13:35:57.028Z,98704.59
2019-03-05T13:38:29.389Z,98706.28
2019-03-05T13:41:01.679Z,98700.02
2019-03-05T13:43:34.158Z,98705.54
2019-03-05T13:46:07.557Z,98718.33
2019-03-05T13:49:04.788Z,98697.80
2019-03-05T13:52:13.478Z,98703.61
2019-03-05T13:55:26.919Z,98697.72
2019-03-05T13:58:15.588Z,98686.75
2019-03-05T14:00:50.695Z,98695.40
2019-03-05T14:03:31.819Z,98693.47
2019-03-05T14:06:41.728Z,98682.89
2019-03-05T14:09:19.011Z,98683.34
2019-03-05T14:11:52.488Z,98685.09
2019-03-05T14:14:31.961Z,98679.20
2019-03-05T14:17:32.955Z,98675.75
2019-03-05T14:20:06.486Z,98677.23
2019-03-05T14:22:39.266Z,98686.88
2019-03-05T14:25:13.032Z,98681.14
2019-03-05T14:27:45.457Z,98688.63
2019-03-05T14:30:21.008Z,98688.26
2019-03-05T14:32:53.375Z,98673.29
2019-03-05T14:35:28.277Z,98684.41
2019-03-05T14:38:00.978Z,98684.45
2019-03-05T14:40:34.669Z,98690.33
2019-03-05T14:43:07.858Z,98690.52
2019-03-05T14:45:40.378Z,98695.13
2019-03-05T14:48:13.154Z,98695.22
2019-03-05T14:50:45.528Z,98691.93
2019-03-05T14:53:20.218Z,98687.94
2019-03-05T14:55:54.577Z,98680.05
2019-03-05T14:58:27.851Z,98680.98
2019-03-05T15:01:00.333Z,98683.59
2019-03-05T15:03:32.983Z,98682.74
2019-03-05T15:06:05.370Z,98676.78
2019-03-05T15:08:37.826Z,98683.03
2019-03-05T15:11:10.338Z,98691.34
2019-03-05T15:13:42.718Z,98691.34
2019-03-05T15:16:16.164Z,98692.22
2019-03-05T15:18:48.801Z,98689.72
2019-03-05T15:21:21.301Z,98691.08
2019-03-05T15:23:53.648Z,98688.52
2019-03-05T15:26:26.048Z,98679.40
2019-03-05T15:28:58.359Z,98689.31
2019-03-05T15:31:29.800Z,98681.48
2019-03-05T15:34:02.729Z,98675.86
2019-03-05T15:36:35.079Z,98685.92
2019-03-05T15:39:06.618Z,98691.31
2019-03-05T15:41:45.690Z,98692.09
2019-03-05T15:44:14.792Z,98701.59
2019-03-05T15:46:47.339Z,98702.09
2019-03-05T15:49:19.751Z,98714.24
2019-03-05T15:51:53.238Z,98730.38
2019-03-05T15:54:27.239Z,98782.69
2019-03-05T15:57:00.389Z,98780.76
2019-03-05T15:59:32.813Z,98751.61
2019-03-05T16:02:06.468Z,98755.27
2019-03-05T16:04:39.717Z,98760.60
2019-03-05T16:07:12.947Z,98752.34
2019-03-05T16:09:47.926Z,98758.30
2019-03-05T16:12:20.577Z,98752.38
2019-03-05T16:14:53.449Z,98751.52
2019-03-05T16:17:28.204Z,98755.77
2019-03-05T16:20:00.048Z,98763.19
2019-03-05T16:22:32.588Z,98762.41
2019-03-05T16:25:05.457Z,98763.70
2019-03-05T16:27:38.218Z,98772.67
2019-03-05T16:30:35.338Z,98766.17
2019-03-05T16:33:37.059Z,98766.11
2019-03-05T16:36:25.498Z,98773.05
2019-03-05T16:39:17.659Z,98772.33
2019-03-05T16:42:08.790Z,98779.45
2019-03-05T16:45:06.908Z,98786.88
2019-03-05T16:47:56.728Z,98784.34
2019-03-05T16:50:53.802Z,98795.73
2019-03-05T16:53:44.089Z,98799.38
2019-03-05T16:56:27.348Z,98806.94
2019-03-05T16:59:34.134Z,98812.27
2019-03-05T17:02:24.928Z,98815.03
2019-03-05T17:05:16.106Z,98826.16
2019-03-05T17:08:07.426Z,98827.84
2019-03-05T17:10:58.822Z,98830.56
2019-03-05T17:13:31.459Z,98838.84
2019-03-05T17:16:04.091Z,98841.13
2019-03-05T17:18:36.722Z,98843.78
2019-03-05T17:21:09.188Z,98848.98
2019-03-05T17:23:41.870Z,98848.33
2019-03-05T17:26:14.537Z,98855.53
2019-03-05T17:28:48.156Z,98856.89
2019-03-05T17:31:21.278Z,98855.59
2019-03-05T17:33:53.986Z,98866.78
2019-03-05T17:36:26.619Z,98874.65
2019-03-05T17:38:59.701Z,98885.31
2019-03-05T17:41:33.828Z,98877.83
2019-03-05T17:44:07.019Z,98886.48
2019-03-05T17:46:39.698Z,98883.47
2019-03-05T17:49:12.593Z,98890.52
2019-03-05T17:51:45.108Z,98891.69
2019-03-05T17:54:17.718Z,98897.20
2019-03-05T17:56:50.520Z,98910.59
2019-03-05T17:59:23.218Z,98912.94
2019-03-05T18:01:55.929Z,98912.17
2019-03-05T18:04:29.137Z,98919.84
2019-03-05T18:07:01.958Z,98923.09
2019-03-05T18:09:34.809Z,98931.02
2019-03-05T18:12:07.412Z,98932.59
2019-03-05T18:14:40.326Z,98933.56
2019-03-05T18:17:12.929Z,98939.86
2019-03-05T18:19:45.611Z,98940.07
2019-03-05T18:22:18.324Z,98945.06
2019-03-05T18:24:50.819Z,98950.91
2019-03-05T18:27:23.658Z,98947.38
2019-03-05T18:29:56.168Z,98946.58
2019-03-05T18:32:28.650Z,98950.19
2019-03-05T18:35:01.078Z,98945.72
2019-03-05T18:37:35.099Z,98942.41
2019-03-05T18:40:08.628Z,98950.77
2019-03-05T18:42:41.300Z,98951.52
2019-03-05T18:45:17.316Z,98957.78
2019-03-05T18:47:50.697Z,98955.31
2019-03-05T18:50:23.708Z,98953.55
2019-03-05T18:52:56.128Z,98960.42
2019-03-05T18:55:28.688Z,98962.00
2019-03-05T18:58:01.348Z,98962.42
2019-03-05T19:00:34.960Z,98967.48
2019-03-05T19:03:07.438Z,98959.47
2019-03-05T19:05:41.769Z,98958.03
2019-03-05T19:08:14.227Z,98959.03
2019-03-05T19:10:46.658Z,98957.95
2019-03-05T19:13:19.018Z,98957.04
2019-03-05T19:15:51.607Z,98961.46
2019-03-05T19:18:25.028Z,98964.11
2019-03-05T19:20:57.588Z,98961.95
2019-03-05T19:23:32.108Z,98962.23
2019-03-05T19:26:05.421Z,98966.02
2019-03-05T19:28:38.008Z,98967.70
2019-03-05T19:31:13.032Z,98969.94
2019-03-05T19:33:45.499Z,98973.86
2019-03-05T19:36:19.446Z,98978.73
2019-03-05T19:38:52.008Z,98974.23
2019-03-05T19:41:25.372Z,98983.23
2019-03-05T19:43:59.908Z,98979.76
2019-03-05T19:46:32.399Z,98989.34
2019-03-05T19:49:05.489Z,98988.16
2019-03-05T19:51:38.168Z,98993.89
2019-03-05T19:54:10.846Z,98997.52
2019-03-05T19:56:43.398Z,98990.30
2019-03-05T19:59:16.409Z,98998.16
2019-03-05T20:01:50.388Z,99002.70
2019-03-05T20:04:22.869Z,99006.02
2019-03-05T20:06:56.788Z,99010.20
2019-03-05T20:09:29.309Z,99010.41
2019-03-05T20:12:02.630Z,99010.24
2019-03-05T20:14:35.245Z,99017.13
2019-03-05T20:17:07.730Z,99018.92
2019-03-05T20:19:40.208Z,99028.98
2019-03-05T20:22:12.566Z,99024.27
2019-03-05T20:24:45.388Z,99028.94
2019-03-05T20:27:17.848Z,99037.06
2019-03-05T20:29:50.329Z,99035.44
2019-03-05T20:32:23.708Z,99033.36
2019-03-05T20:34:56.299Z,99033.80
2019-03-05T20:37:30.875Z,99037.70
2019-03-05T20:40:04.346Z,99039.59
2019-03-05T20:42:38.316Z,99036.71
2019-03-05T20:45:16.805Z,99040.39
2019-03-05T20:47:49.495Z,99052.77
2019-03-05T20:50:22.047Z,99055.56
2019-03-05T20:52:54.806Z,99050.47
2019-03-05T20:55:27.373Z,99058.03
2019-03-05T20:58:00.125Z,99064.72
2019-03-05T21:00:33.802Z,99069.05
2019-03-05T21:03:07.164Z,99069.47
2019-03-05T21:05:41.465Z,99072.13
2019-03-05T21:08:13.942Z,99073.97
2019-03-05T21:10:46.585Z,99080.26
2019-03-05T21:13:18.895Z,99079.45
2019-03-05T21:15:51.284Z,99079.16
2019-03-05T21:18:23.756Z,99085.79
2019-03-05T21:20:57.753Z,99085.12
2019-03-05T21:23:30.429Z,99082.28
2019-03-05T21:26:03.065Z,99089.16
2019-03-05T21:28:35.388Z,99093.97
2019-03-05T21:31:08.122Z,99101.85
2019-03-05T21:33:40.483Z,99107.00
2019-03-05T21:36:12.948Z,99103.10
2019-03-05T21:38:46.282Z,99107.00
2019-03-05T21:41:19.186Z,99109.10
2019-03-05T21:43:51.645Z,99109.93
2019-03-05T21:46:24.194Z,99115.64
2019-03-05T21:48:56.637Z,99119.59
2019-03-05T21:51:29.355Z,99128.38
2019-03-05T21:54:01.717Z,99118.56
2019-03-05T21:56:34.145Z,99123.08
2019-03-05T21:59:08.770Z,99122.88
2019-03-05T22:01:41.235Z,99130.03
2019-03-05T22:04:13.927Z,99127.04
2019-03-05T22:06:48.526Z,99128.05
2019-03-05T22:09:21.025Z,99132.45
2019-03-05T22:11:53.576Z,99140.28
2019-03-05T22:14:26.086Z,99143.88
2019-03-05T22:16:58.635Z,99149.23
2019-03-05T22:19:31.135Z,99153.83
2019-03-05T22:22:03.833Z,99156.98
2019-03-05T22:24:36.195Z,99163.08
2019-03-05T22:27:08.785Z,99169.99
2019-03-05T22:29:41.246Z,99167.05
2019-03-05T22:32:13.735Z,99165.88
2019-03-05T22:34:46.075Z,99177.64
2019-03-05T22:37:18.458Z,99176.12
2019-03-05T22:39:50.926Z,99188.34
2019-03-05T22:42:23.385Z,99187.17
2019-03-05T22:44:55.847Z,99188.55
2019-03-05T22:47:28.573Z,99190.31
2019-03-05T22:50:00.932Z,99192.17
2019-03-05T22:52:33.430Z,99195.67
2019-03-05T22:55:07.634Z,99200.07
2019-03-05T22:57:40.113Z,99207.49
2019-03-05T23:01:26.436Z,99203.69
2019-03-05T23:04:00.595Z,99202.04
2019-03-05T23:06:33.208Z,99202.55
2019-03-05T23:09:14.343Z,99203.80
2019-03-05T23:11:47.404Z,99206.32
2019-03-05T23:14:20.953Z,99202.00
2019-03-05T23:16:53.545Z,99211.03
2019-03-05T23:19:26.805Z,99207.73
2019-03-05T23:21:59.547Z,99214.30
2019-03-05T23:24:32.515Z,99213.50
2019-03-05T23:27:06.286Z,99213.58
2019-03-05T23:29:43.647Z,99215.42
2019-03-05T23:32:17.603Z,99218.61
2019-03-05T23:34:49.957Z,99222.45
2019-03-05T23:37:22.356Z,99226.81
2019-03-05T23:39:54.795Z,99232.89
2019-03-05T23:42:27.821Z,99247.14
2019-03-05T23:45:00.253Z,99247.27
2019-03-05T23:47:32.776Z,99245.53
2019-03-05T23:50:05.506Z,99250.31
2019-03-05T23:52:37.823Z,99249.50
2019-03-05T23:55:10.663Z,99259.03
2019-03-05T23:57:42.974Z,99261.27
